Time;durP1;ratioP1;P1;durP2;ratioP2;P2;SDS_P1;SDS_P2;PMS_P1;PMS_P2;Temp;Humidity;BMP_temperature;BMP_pressure;BME280_temperature;BME280_humidity;BME280_pressure;Samples;Min_cycle;Max_cycle;Signal;HPM_P1;HPM_P2
2021/09/04 00:01:29;;;;;;;15.82;9.40;;;15.80;99.90;;;14.41;91.72;101449.22;2566732;30;138231;-39
2021/09/04 00:03:57;;;;;;;16.20;9.98;;;15.80;99.90;;;14.33;91.80;101447.63;2569794;30;137032;-39
2021/09/04 00:06:24;;;;;;;16.67;9.90;;;15.70;99.90;;;14.28;91.83;101447.41;2566264;30;137462;-39
2021/09/04 00:08:52;;;;;;;16.02;9.35;;;15.60;99.90;;;14.20;91.67;101434.84;2568571;30;139261;-39
2021/09/04 00:11:20;;;;;;;15.43;8.95;;;15.60;99.90;;;14.10;92.19;101440.81;2569455;30;137698;-39
2021/09/04 00:13:47;;;;;;;17.40;8.38;;;15.50;99.90;;;14.05;92.70;101432.38;2568037;30;137018;-39
2021/09/04 00:16:17;;;;;;;18.40;9.82;;;15.40;99.90;;;14.00;92.42;101432.19;2568470;30;137040;-39
2021/09/04 00:18:45;;;;;;;17.05;8.93;;;15.40;99.90;;;13.92;92.59;101436.91;2570601;30;137216;-40
2021/09/04 00:21:12;;;;;;;15.27;8.50;;;15.30;99.90;;;13.87;92.99;101423.00;2569641;30;137484;-39
2021/09/04 00:23:40;;;;;;;17.52;9.02;;;15.30;99.90;;;13.80;93.12;101427.69;2566632;30;138518;-39
2021/09/04 00:26:08;;;;;;;;;;;15.20;99.90;;;13.75;93.11;101427.50;2571513;30;136889;-39
2021/09/04 00:28:35;;;;;;;15.07;9.23;;;15.10;99.90;;;13.66;93.87;101414.03;2569469;30;138283;-39
2021/09/04 00:31:03;;;;;;;21.02;10.32;;;15.10;99.90;;;13.74;93.88;101428.53;2568895;30;136664;-40
2021/09/04 00:33:30;;;;;;;17.75;10.02;;;15.10;99.90;;;13.70;94.50;101427.31;2568439;30;138260;-39
2021/09/04 00:35:58;;;;;;;15.38;8.80;;;15.10;99.90;;;13.74;94.94;101417.56;2569929;30;136670;-39
2021/09/04 00:38:26;;;;;;;18.83;9.85;;;15.10;99.90;;;13.73;95.23;101419.50;2566666;30;138551;-39
2021/09/04 00:41:37;;;;;;;20.83;9.90;;;15.10;99.90;;;13.70;95.04;101422.69;2567281;30;137754;-42
2021/09/04 00:44:06;;;;;;;18.30;9.85;;;15.10;99.90;;;13.70;95.21;101417.19;2568881;30;138580;-42
2021/09/04 00:46:34;;;;;;;17.35;9.68;;;15.10;99.90;;;13.69;95.19;101422.88;2568275;30;136653;-41
2021/09/04 00:49:01;;;;;;;19.02;10.25;;;15.10;99.90;;;13.63;95.27;101419.09;2568158;30;137048;-42
2021/09/04 00:51:29;;;;;;;19.55;10.00;;;15.00;99.90;;;13.58;95.51;101430.75;2568557;30;137660;-41
2021/09/04 00:53:56;;;;;;;18.27;9.70;;;15.00;99.90;;;13.52;95.48;101428.84;2567620;30;138447;-41
2021/09/04 00:56:25;;;;;;;15.52;8.43;;;14.90;99.90;;;13.38;95.12;101415.19;2568462;30;138453;-41
2021/09/04 00:58:54;;;;;;;21.67;10.25;;;14.80;99.90;;;13.38;96.00;101414.34;2567673;30;138784;-41
2021/09/04 01:01:22;;;;;;;16.92;9.15;;;14.80;99.90;;;13.36;95.16;101425.53;2568613;30;137111;-41
2021/09/04 01:03:51;;;;;;;17.10;8.88;;;14.80;99.90;;;13.29;95.24;101424.72;2568371;30;136826;-41
2021/09/04 01:06:19;;;;;;;16.75;9.00;;;14.70;99.90;;;13.24;95.01;101419.88;2566348;30;137849;-41
2021/09/04 01:08:47;;;;;;;13.43;8.23;;;14.70;99.90;;;13.16;94.96;101420.13;2566851;30;137399;-42
2021/09/04 01:11:16;;;;;;;;;;;14.60;99.90;;;13.09;95.15;101422.88;2568727;30;137409;-41
2021/09/04 01:13:45;;;;;;;14.98;8.60;;;14.50;99.90;;;13.03;94.49;101420.16;2567655;30;138440;-41
2021/09/04 01:16:12;;;;;;;;;;;14.50;99.90;;;12.97;94.70;101412.78;2568531;30;137470;-41
2021/09/04 01:18:40;;;;;;;14.88;7.72;;;14.40;99.90;;;12.95;95.14;101418.47;2566102;30;137312;-41
2021/09/04 01:21:10;;;;;;;15.55;8.25;;;14.40;99.90;;;12.92;95.34;101421.63;2568374;30;137090;-41
2021/09/04 01:23:39;;;;;;;14.13;8.07;;;14.30;99.90;;;12.87;94.72;101418.72;2568672;30;139356;-42
2021/09/04 01:26:11;;;;;;;15.70;7.85;;;14.30;99.90;;;12.80;94.58;101419.56;2568242;30;136982;-41
2021/09/04 01:28:39;;;;;;;14.80;8.70;;;14.20;99.90;;;12.75;94.77;101419.38;2568087;30;139219;-41
2021/09/04 01:31:08;;;;;;;16.75;9.27;;;14.20;99.90;;;12.72;94.90;101418.94;2566665;30;138249;-41
2021/09/04 01:33:44;;;;;;;15.55;9.48;;;14.20;99.90;;;12.74;95.88;101422.31;2568519;30;139265;-42
2021/09/04 01:36:12;;;;;;;14.40;8.45;;;14.20;99.90;;;12.68;95.56;101421.25;2567530;30;138299;-42
2021/09/04 01:38:40;;;;;;;14.40;8.32;;;14.10;99.90;;;12.63;95.26;101418.31;2568368;30;138357;-42
2021/09/04 01:41:07;;;;;;;14.05;8.25;;;14.10;99.90;;;12.58;94.75;101416.19;2568142;30;136953;-41
2021/09/04 01:43:35;;;;;;;12.27;7.13;;;14.00;99.90;;;12.52;94.92;101411.56;2567001;30;139194;-41
2021/09/04 01:46:04;;;;;;;13.80;8.05;;;14.00;99.90;;;12.47;94.71;101409.50;2567823;30;137011;-41
2021/09/04 01:48:32;;;;;;;15.15;8.73;;;13.90;99.90;;;12.44;94.95;101407.16;2568701;30;138279;-41
2021/09/04 01:51:00;;;;;;;16.08;7.95;;;13.90;99.90;;;12.40;94.59;101403.16;2568281;30;136872;-42
2021/09/04 01:53:28;;;;;;;15.63;8.65;;;13.80;99.90;;;12.36;94.93;101396.44;2566029;30;137137;-41
2021/09/04 01:55:55;;;;;;;16.13;8.98;;;13.80;99.90;;;12.39;95.55;101403.38;2566357;30;138699;-41
2021/09/04 01:58:23;;;;;;;18.08;9.43;;;13.80;99.90;;;12.34;95.49;101395.81;2569082;30;137327;-42
2021/09/04 02:00:50;;;;;;;21.77;9.77;;;13.80;99.90;;;12.34;95.91;101401.28;2568643;30;137512;-41
2021/09/04 02:03:19;;;;;;;17.90;8.88;;;13.80;99.90;;;12.30;96.02;101394.53;2567879;30;138986;-41
2021/09/04 02:05:46;;;;;;;19.65;9.55;;;13.70;99.90;;;12.30;96.29;101398.09;2567125;30;138216;-41
2021/09/04 02:08:14;;;;;;;19.77;10.15;;;13.70;99.90;;;12.32;97.32;101395.16;2568217;30;138128;-41
2021/09/04 02:10:41;;;;;;;20.45;10.02;;;13.70;99.90;;;12.34;97.96;101395.81;2568699;30;136935;-43
2021/09/04 02:13:09;;;;;;;22.13;11.48;;;13.70;99.90;;;12.33;98.19;101396.84;2567901;30;139513;-41
2021/09/04 02:15:36;;;;;;;20.38;11.05;;;13.70;99.90;;;12.36;98.82;101404.63;2566825;30;138386;-41
2021/09/04 02:18:05;;;;;;;18.10;9.77;;;13.70;99.90;;;12.37;99.11;101404.44;2566494;30;136875;-41
2021/09/04 02:20:34;;;;;;;25.65;11.75;;;13.80;99.90;;;12.39;99.53;101396.00;2567202;30;138525;-44
2021/09/04 02:23:01;;;;;;;20.52;10.93;;;13.80;99.90;;;12.37;99.71;101395.38;2567386;30;136647;-41
2021/09/04 02:25:30;;;;;;;20.73;10.98;;;13.80;99.90;;;12.35;99.42;101392.00;2567270;30;136860;-43
2021/09/04 02:27:57;;;;;;;24.50;11.32;;;13.80;99.90;;;12.33;99.63;101385.91;2568974;30;137164;-41
2021/09/04 02:30:25;;;;;;;20.63;11.48;;;13.70;99.90;;;12.32;99.82;101386.97;2567525;30;137687;-41
2021/09/04 02:32:53;;;;;;;22.00;11.00;;;13.70;99.90;;;12.30;99.86;101391.81;2569335;30;138191;-41
2021/09/04 02:35:21;;;;;;;;;;;13.70;99.90;;;12.26;99.63;101382.34;2567409;30;137114;-41
2021/09/04 02:37:49;;;;;;;16.15;9.55;;;13.70;99.90;;;12.25;99.77;101383.41;2567347;30;139141;-41
2021/09/04 02:40:18;;;;;;;19.20;10.73;;;13.70;99.90;;;12.22;99.61;101379.16;2566411;30;137418;-41
2021/09/04 02:42:45;;;;;;;23.80;11.50;;;13.70;99.90;;;12.19;99.63;101388.63;2568053;30;138112;-41
2021/09/04 02:45:13;;;;;;;23.55;11.88;;;13.60;99.90;;;12.23;100.00;101387.19;2567086;30;138373;-41
2021/09/04 02:47:41;;;;;;;22.88;12.35;;;13.60;99.90;;;12.23;100.00;101376.25;2567454;30;138323;-43
2021/09/04 02:50:09;;;;;;;24.85;13.15;;;13.60;99.90;;;12.25;100.00;101373.28;2567744;30;138373;-42
2021/09/04 02:52:37;;;;;;;29.88;14.18;;;13.70;99.90;;;12.35;100.00;101381.06;2567729;30;138943;-41
2021/09/04 02:55:05;;;;;;;25.08;12.43;;;13.70;99.90;;;12.27;100.00;101376.63;2567658;30;137548;-41
2021/09/04 02:57:34;;;;;;;24.45;12.50;;;13.70;99.90;;;12.26;100.00;101376.88;2568013;30;138450;-43
2021/09/04 03:00:04;;;;;;;26.67;12.73;;;13.70;99.90;;;12.21;100.00;101378.34;2568043;30;137664;-42
2021/09/04 03:02:32;;;;;;;25.65;12.43;;;13.60;99.90;;;12.26;100.00;101390.53;2568682;30;137148;-41
2021/09/04 03:05:01;;;;;;;24.50;13.60;;;13.70;99.90;;;12.26;100.00;101385.91;2566212;30;138025;-41
2021/09/04 03:07:29;;;;;;;24.42;12.32;;;13.70;99.90;;;12.26;100.00;101385.06;2568391;30;138305;-41
2021/09/04 03:09:56;;;;;;;29.50;14.65;;;13.70;99.90;;;12.26;100.00;101390.53;2568608;30;138323;-41
2021/09/04 03:12:24;;;;;;;22.10;12.35;;;13.70;99.90;;;12.22;100.00;101382.75;2569670;30;138315;-41
2021/09/04 03:14:53;;;;;;;24.65;12.95;;;13.70;99.90;;;12.27;100.00;101386.75;2566625;30;136715;-41
2021/09/04 03:17:23;;;;;;;24.35;12.75;;;13.70;99.90;;;12.26;100.00;101385.06;2569319;30;138352;-41
2021/09/04 03:19:51;;;;;;;27.27;13.38;;;13.70;99.90;;;12.26;100.00;101374.97;2566865;30;137704;-41
2021/09/04 03:22:19;;;;;;;;;;;13.70;99.90;;;12.24;100.00;101377.06;2567821;30;138380;-41
2021/09/04 03:24:47;;;;;;;25.30;13.32;;;13.70;99.90;;;12.21;100.00;101378.34;2568712;30;137140;-41
2021/09/04 03:27:16;;;;;;;24.75;12.40;;;13.70;99.90;;;12.18;100.00;101381.47;2566567;30;138637;-41
2021/09/04 03:29:43;;;;;;;28.73;13.73;;;13.60;99.90;;;12.18;100.00;101378.75;2568257;30;137286;-42
2021/09/04 03:32:11;;;;;;;;;;;13.60;99.90;;;12.22;100.00;101380.03;2570391;30;137103;-42
2021/09/04 03:34:39;;;;;;;24.75;12.57;;;13.60;99.90;;;12.18;100.00;101373.28;2568118;30;136883;-41
2021/09/04 03:37:07;;;;;;;26.15;13.93;;;13.60;99.90;;;12.32;100.00;101385.06;2568293;30;138138;-44
2021/09/04 03:39:35;;;;;;;29.55;14.68;;;13.70;99.90;;;12.27;100.00;101384.03;2568284;30;136945;-41
2021/09/04 03:42:05;;;;;;;28.08;14.65;;;13.70;99.90;;;12.22;100.00;101379.16;2569457;30;138245;-41
2021/09/04 03:44:33;;;;;;;27.08;13.70;;;13.70;99.90;;;12.20;100.00;101376.66;2567227;30;137461;-41
2021/09/04 03:47:02;;;;;;;30.80;16.73;;;13.60;99.90;;;12.31;100.00;101375.16;2568232;30;138434;-41
2021/09/04 03:49:30;;;;;;;30.40;14.68;;;13.70;99.90;;;12.27;100.00;101376.63;2567728;30;136800;-41
2021/09/04 03:51:58;;;;;;;31.02;14.68;;;13.70;99.90;;;12.27;100.00;101378.56;2566978;30;137429;-41
2021/09/04 03:54:26;;;;;;;29.48;15.02;;;13.70;99.90;;;12.19;100.00;101374.13;2568919;30;136933;-43
2021/09/04 03:56:55;;;;;;;30.33;15.45;;;13.70;99.90;;;12.15;100.00;101378.34;2568856;30;137560;-41
2021/09/04 03:59:23;;;;;;;27.05;14.00;;;13.60;99.90;;;12.10;100.00;101389.91;2568708;30;137509;-41
2021/09/04 04:01:53;;;;;;;33.28;16.30;;;13.50;99.90;;;12.14;100.00;101390.31;2568109;30;138580;-41
2021/09/04 04:04:21;;;;;;;;;;;13.60;99.90;;;12.06;100.00;101392.19;2568701;30;137474;-41
2021/09/04 04:06:49;;;;;;;30.65;14.68;;;13.50;99.90;;;12.09;100.00;101390.94;2568644;30;138330;-41
2021/09/04 04:09:17;;;;;;;30.30;16.35;;;13.50;99.90;;;12.10;100.00;101398.09;2569754;30;136648;-41
2021/09/04 04:11:46;;;;;;;32.42;16.85;;;13.50;99.90;;;12.09;100.00;101407.34;2568857;30;137318;-41
2021/09/04 04:14:14;;;;;;;35.90;18.08;;;13.50;99.90;;;12.16;100.00;101396.44;2567960;30;137750;-41
2021/09/04 04:16:41;;;;;;;38.67;19.25;;;13.50;99.90;;;12.16;100.00;101394.53;2568647;30;138481;-43
2021/09/04 04:19:09;;;;;;;37.13;18.02;;;13.50;99.90;;;12.16;100.00;101412.84;2567732;30;138301;-41
2021/09/04 04:21:36;;;;;;;34.95;18.17;;;13.60;99.90;;;12.17;100.00;101400.84;2568139;30;137680;-41
2021/09/04 04:24:04;;;;;;;37.50;17.95;;;13.60;99.90;;;12.15;100.00;101400.22;2568480;30;137554;-41
2021/09/04 04:26:33;;;;;;;40.22;18.90;;;13.60;99.90;;;12.20;100.00;101398.56;2567839;30;138930;-42
2021/09/04 04:29:00;;;;;;;44.67;21.33;;;13.60;99.90;;;12.33;100.00;101400.44;2568103;30;137504;-41
2021/09/04 04:31:28;;;;;;;;;;;13.70;99.90;;;12.46;100.00;101402.31;2567189;30;138388;-41
2021/09/04 04:33:56;;;;;;;49.20;21.90;;;13.80;99.90;;;12.45;100.00;101397.88;2567538;30;137113;-41
2021/09/04 04:36:24;;;;;;;;;;;13.70;99.90;;;12.45;100.00;101403.38;2568249;30;138488;-42
2021/09/04 04:38:52;;;;;;;48.25;22.30;;;13.80;99.90;;;12.55;100.00;101399.38;2568837;30;136767;-41
2021/09/04 04:41:19;;;;;;;43.88;21.90;;;13.90;99.90;;;12.60;100.00;101399.59;2569249;30;139288;-41
2021/09/04 04:43:48;;;;;;;44.78;22.13;;;13.90;99.90;;;12.64;100.00;101401.69;2568929;30;138169;-41
2021/09/04 04:46:16;;;;;;;51.78;23.10;;;14.00;99.90;;;12.74;100.00;101398.53;2568018;30;137489;-41
2021/09/04 04:48:43;;;;;;;47.38;22.70;;;14.00;99.90;;;12.73;100.00;101407.78;2566953;30;137516;-41
2021/09/04 04:51:12;;;;;;;47.30;22.38;;;14.10;99.90;;;12.84;100.00;101403.53;2568754;30;138304;-41
2021/09/04 04:53:40;;;;;;;52.42;24.83;;;14.10;99.90;;;12.88;100.00;101404.81;2565030;30;138485;-41
2021/09/04 04:56:09;;;;;;;49.35;22.95;;;14.20;99.90;;;12.99;100.00;101416.16;2568042;30;139057;-41
2021/09/04 04:58:37;;;;;;;51.45;23.40;;;14.20;99.90;;;12.94;100.00;101400.34;2567928;30;138113;-44
2021/09/04 05:01:05;;;;;;;61.15;24.77;;;14.30;99.90;;;13.00;100.00;101405.00;2568311;30;139182;-41
2021/09/04 05:03:33;;;;;;;49.70;24.42;;;14.30;99.90;;;12.90;100.00;101396.38;2568191;30;137490;-41
2021/09/04 05:06:01;;;;;;;48.30;24.65;;;14.30;99.90;;;13.00;100.00;101413.22;2567181;30;137351;-41
2021/09/04 05:08:28;;;;;;;56.70;24.17;;;14.30;99.90;;;13.02;100.00;101422.06;2566109;30;137113;-41
2021/09/04 05:10:57;;;;;;;54.67;24.90;;;14.40;99.90;;;13.01;100.00;101423.13;2568623;30;138404;-41
2021/09/04 05:13:26;;;;;;;51.75;24.45;;;14.30;99.90;;;13.05;100.00;101421.63;2568288;30;136827;-41
2021/09/04 05:15:56;;;;;;;57.42;26.15;;;14.40;99.90;;;13.11;100.00;101416.34;2568241;30;138574;-41
2021/09/04 05:18:23;;;;;;;;;;;14.40;99.90;;;13.09;100.00;101420.13;2568319;30;137322;-41
2021/09/04 05:20:52;;;;;;;57.58;25.00;;;14.40;99.90;;;13.05;100.00;101426.25;2567639;30;137769;-41
2021/09/04 05:23:20;;;;;;;59.35;26.40;;;14.40;99.90;;;13.07;100.00;101432.34;2568392;30;137174;-41
2021/09/04 05:25:49;;;;;;;61.80;25.58;;;14.40;99.90;;;13.16;100.00;101430.22;2568729;30;138470;-41
2021/09/04 05:28:18;;;;;;;59.30;25.60;;;14.40;99.90;;;13.19;100.00;101438.00;2569559;30;137684;-41
2021/09/04 05:30:45;;;;;;;61.58;25.73;;;14.50;99.90;;;13.20;100.00;101442.44;2568181;30;138166;-41
2021/09/04 05:33:13;;;;;;;60.42;25.13;;;14.50;99.90;;;13.17;100.00;101445.59;2569102;30;137596;-42
2021/09/04 05:35:42;;;;;;;58.15;25.73;;;14.50;99.90;;;13.19;100.00;101446.22;2566997;30;137967;-39
2021/09/04 05:38:10;;;;;;;65.50;27.25;;;14.50;99.90;;;13.14;100.00;101438.69;2566763;30;136841;-41
2021/09/04 05:40:38;;;;;;;54.75;24.50;;;14.50;99.90;;;13.11;100.00;101443.72;2567523;30;137599;-41
2021/09/04 05:43:05;;;;;;;55.55;25.85;;;14.40;99.90;;;13.16;100.00;101443.94;2568246;30;137591;-41
2021/09/04 05:45:33;;;;;;;56.38;25.67;;;14.50;99.90;;;13.17;100.00;101445.59;2568945;30;137650;-41
2021/09/04 05:48:00;;;;;;;;;;;14.50;99.90;;;13.12;100.00;101438.03;2568442;30;137022;-41
2021/09/04 05:50:28;;;;;;;53.15;24.15;;;14.40;99.90;;;13.08;100.00;101437.63;2568439;30;138892;-41
2021/09/04 05:52:55;;;;;;;53.47;24.20;;;14.40;99.90;;;13.11;100.00;101449.22;2563623;31;137094;-41
2021/09/04 05:55:23;;;;;;;57.28;23.92;;;14.40;99.90;;;13.13;100.00;101447.09;2566945;30;138515;-41
2021/09/04 05:57:50;;;;;;;55.75;25.20;;;14.40;99.90;;;13.15;100.00;101450.47;2567585;30;137684;-41
2021/09/04 06:00:18;;;;;;;61.13;25.02;;;14.50;99.90;;;13.11;100.00;101441.00;2566827;30;138465;-41
2021/09/04 06:02:46;;;;;;;53.45;23.35;;;14.40;99.90;;;13.08;100.00;101451.31;2566011;30;137522;-41
2021/09/04 06:05:13;;;;;;;60.75;24.92;;;14.40;99.90;;;13.16;100.00;101453.00;2568297;30;137851;-40
2021/09/04 06:07:41;;;;;;;58.22;24.75;;;14.40;99.90;;;13.18;100.00;101450.03;2568074;30;137415;-41
2021/09/04 06:10:09;;;;;;;53.17;24.02;;;14.50;99.90;;;13.15;100.00;101450.47;2567770;30;138544;-43
2021/09/04 06:12:37;;;;;;;58.38;24.40;;;14.50;99.90;;;13.13;100.00;101445.22;2567946;30;137433;-41
2021/09/04 06:15:06;;;;;;;51.88;23.30;;;14.50;99.90;;;13.18;100.00;101447.28;2568063;30;137106;-41
2021/09/04 06:17:35;;;;;;;61.03;25.10;;;14.50;99.90;;;13.21;100.00;101447.72;2566464;30;137628;-41
2021/09/04 06:20:04;;;;;;;56.38;24.23;;;14.50;99.90;;;13.28;100.00;101446.84;2567572;30;139293;-40
2021/09/04 06:22:31;;;;;;;58.55;24.00;;;14.50;99.90;;;13.27;100.00;101456.13;2568333;30;137080;-41
2021/09/04 06:24:59;;;;;;;60.75;24.83;;;14.60;99.90;;;13.23;100.00;101452.97;2565469;30;139312;-40
2021/09/04 06:27:27;;;;;;;;;;;14.60;99.90;;;13.27;100.00;101459.72;2567839;30;136742;-41
2021/09/04 06:29:54;;;;;;;55.38;23.05;;;14.60;99.90;;;13.30;100.00;101464.75;2566018;30;137155;-41
2021/09/04 06:32:22;;;;;;;56.67;24.55;;;14.60;99.90;;;13.33;100.00;101467.06;2568062;30;136931;-41
2021/09/04 06:34:49;;;;;;;53.53;24.95;;;14.60;99.90;;;13.23;99.38;101463.91;2567345;30;139062;-40
2021/09/04 06:37:17;;;;;;;62.60;24.38;;;14.60;99.90;;;13.27;100.00;101469.81;2567286;30;136612;-41
2021/09/04 06:39:51;;;;;;;58.80;24.45;;;14.50;99.90;;;13.24;100.00;101446.41;2567144;30;139077;31
2021/09/04 06:42:19;;;;;;;58.10;23.50;;;14.60;99.90;;;13.34;99.81;101468.75;2569916;30;137895;-39
2021/09/04 06:44:46;;;;;;;58.92;22.63;;;14.60;99.90;;;13.40;100.00;101471.69;2568256;30;138015;-39
2021/09/04 06:47:14;;;;;;;47.33;21.05;;;14.60;99.90;;;13.40;99.70;101474.44;2567466;30;137579;-39
2021/09/04 06:49:42;;;;;;;46.28;21.60;;;14.70;99.90;;;13.45;99.54;101480.13;2569227;30;137319;-39
2021/09/04 06:52:09;;;;;;;50.78;22.02;;;14.70;99.90;;;13.49;99.35;101473.16;2567936;30;136816;-39
2021/09/04 06:54:36;;;;;;;49.55;21.15;;;14.80;99.90;;;13.56;99.30;101474.00;2567733;30;139222;-39
2021/09/04 06:57:04;;;;;;;49.30;20.48;;;14.80;99.90;;;13.56;98.85;101482.22;2570423;30;137620;-39
2021/09/04 06:59:32;;;;;;;;;;;14.80;99.90;;;13.56;98.97;101479.47;2568724;30;138519;-39
2021/09/04 07:01:59;;;;;;;49.08;20.88;;;14.80;99.90;;;13.57;98.36;101477.56;2568611;30;137241;-39
2021/09/04 07:04:27;;;;;;;51.78;22.33;;;14.80;99.90;;;13.65;99.13;101478.16;2568559;30;137893;-38
2021/09/04 07:06:55;;;;;;;45.05;21.70;;;14.90;99.90;;;13.72;98.50;101482.78;2567319;30;136889;-39
2021/09/04 07:09:22;;;;;;;41.63;20.35;;;14.90;99.90;;;13.77;98.47;101477.47;2569249;30;138346;-41
2021/09/04 07:11:50;;;;;;;40.15;20.58;;;15.00;99.90;;;13.83;97.63;101473.88;2570290;30;138282;-39
2021/09/04 07:14:17;;;;;;;41.05;19.17;;;15.10;99.90;;;13.82;96.63;101474.94;2567319;30;139013;-38
2021/09/04 07:16:45;;;;;;;39.95;19.10;;;15.10;99.90;;;13.84;96.65;101469.22;2569323;30;138177;-39
2021/09/04 07:19:13;;;;;;;40.50;19.30;;;15.10;99.90;;;13.90;96.86;101477.41;2568704;30;136784;-39
2021/09/04 07:21:41;;;;;;;39.10;18.88;;;15.10;99.90;;;13.91;96.19;101479.09;2567503;30;136963;-39
2021/09/04 07:24:08;;;;;;;43.40;20.00;;;15.10;99.90;;;13.96;95.52;101475.72;2568163;30;136796;-39
2021/09/04 07:26:36;;;;;;;39.17;18.33;;;15.20;99.90;;;14.00;96.02;101473.34;2565523;30;138318;-39
2021/09/04 07:29:04;;;;;;;37.03;18.10;;;15.30;99.90;;;14.08;95.48;101476.69;2569257;30;137095;-39
2021/09/04 07:31:31;;;;;;;41.08;18.70;;;15.30;99.90;;;14.10;94.54;101476.47;2565702;30;137828;-39
2021/09/04 07:33:59;;;;;;;41.25;18.17;;;15.30;99.90;;;14.17;94.94;101488.25;2569620;30;137278;-39
2021/09/04 07:36:26;;;;;;;38.53;17.65;;;15.30;99.90;;;14.14;92.89;101482.34;2569213;30;138427;-39
2021/09/04 07:38:54;;;;;;;38.15;16.98;;;15.40;99.90;;;14.13;93.24;101492.50;2569052;30;138468;-40
2021/09/04 07:41:22;;;;;;;38.90;17.17;;;15.40;99.90;;;14.18;94.20;101489.91;2567660;30;137684;-40
2021/09/04 07:43:50;;;;;;;36.33;16.42;;;15.40;99.90;;;14.08;91.74;101497.81;2565013;30;139207;-39
2021/09/04 07:46:20;;;;;;;32.60;16.13;;;15.40;99.90;;;14.14;93.13;101504.28;2569000;30;137552;-39
2021/09/04 07:48:47;;;;;;;36.00;17.15;;;15.40;99.90;;;14.07;91.60;101496.94;2570033;30;139182;-40
2021/09/04 07:51:15;;;;;;;39.17;17.02;;;15.40;99.90;;;14.04;91.88;101493.78;2570438;30;137596;-39
2021/09/04 07:53:43;;;;;;;;;;;15.30;99.90;;;14.16;93.51;101496.69;2569205;30;137339;-39
2021/09/04 07:56:10;;;;;;;38.75;16.98;;;15.40;99.90;;;14.16;91.77;101496.69;2569207;30;138180;-39
2021/09/04 07:58:38;;;;;;;37.70;16.92;;;15.40;99.90;;;14.19;92.09;101494.34;2572443;30;137296;-39
2021/09/04 08:01:05;;;;;;;38.13;17.35;;;15.40;99.90;;;14.26;92.49;101499.81;2569590;30;137547;-40
2021/09/04 08:03:33;;;;;;;;;;;15.50;99.90;;;14.37;92.94;101499.09;2570411;30;137108;-39
2021/09/04 08:06:01;;;;;;;39.47;16.30;;;15.60;99.90;;;14.32;91.18;101495.31;2569076;30;137366;-39
2021/09/04 08:08:28;;;;;;;38.92;17.50;;;15.60;99.90;;;14.31;91.13;101504.59;2570177;30;138242;-40
2021/09/04 08:10:57;;;;;;;34.90;16.23;;;15.50;99.90;;;14.36;91.79;101493.84;2566158;30;137728;-39
2021/09/04 08:13:27;;;;;;;37.83;16.85;;;15.60;99.90;;;14.38;92.28;101506.25;2568636;30;139020;-39
2021/09/04 08:15:54;;;;;;;35.60;16.77;;;15.60;99.90;;;14.21;89.51;101511.44;2568751;30;137029;-40
2021/09/04 08:18:22;;;;;;;38.10;16.73;;;15.50;99.90;;;14.27;90.07;101506.97;2570446;30;138117;-39
2021/09/04 08:20:49;;;;;;;36.33;16.73;;;15.50;99.90;;;14.39;91.71;101516.16;2569781;30;138296;-39
2021/09/04 08:23:17;;;;;;;33.72;16.05;;;15.60;99.90;;;14.45;90.96;101516.34;2570404;30;137162;-39
2021/09/04 08:25:44;;;;;;;34.97;16.58;;;15.60;99.90;;;14.57;91.36;101517.31;2570037;30;136914;-39
2021/09/04 08:28:12;;;;;;;35.35;16.13;;;15.70;99.90;;;14.64;90.70;101515.38;2570702;30;137348;-39
2021/09/04 08:30:40;;;;;;;34.65;15.70;;;15.80;99.90;;;14.49;87.88;101517.59;2568535;30;137045;-39
2021/09/04 08:33:07;;;;;;;32.65;15.82;;;15.80;99.90;;;14.57;89.05;101513.72;2570739;30;137559;-39
2021/09/04 08:35:35;;;;;;;32.10;15.55;;;15.80;99.90;;;14.74;88.66;101508.59;2568428;30;137514;-39
2021/09/04 08:38:09;;;;;;;32.22;15.30;;;15.90;99.90;;;14.81;89.32;101503.88;2569660;30;138254;-39
2021/09/04 08:40:42;;;;;;;30.40;15.07;;;16.00;99.90;;;14.90;88.16;101512.66;2568225;30;136755;-39
2021/09/04 08:43:11;;;;;;;32.08;15.32;;;16.00;99.90;;;15.02;89.17;101508.09;2570456;30;136779;-39
2021/09/04 08:45:44;;;;;;;28.55;14.35;;;16.20;99.90;;;15.09;87.90;101516.28;2569139;30;137948;-39
2021/09/04 08:48:13;;;;;;;29.92;15.95;;;16.20;99.90;;;15.05;87.16;101509.56;2569764;30;137777;-39
2021/09/04 08:50:41;;;;;;;31.77;15.32;;;16.20;99.90;;;14.96;86.55;101503.53;2569438;30;137697;-38
2021/09/04 08:53:09;;;;;;;32.45;15.55;;;16.20;99.90;;;15.05;87.39;101504.91;2567275;30;137720;-39
2021/09/04 08:55:37;;;;;;;34.85;16.10;;;16.20;99.90;;;15.17;87.34;101515.16;2571117;30;137807;-40
2021/09/04 08:58:04;;;;;;;29.00;14.93;;;16.30;99.90;;;15.32;87.29;101515.63;2568218;30;138263;-39
2021/09/04 09:00:38;;;;;;;28.67;14.88;;;16.40;99.90;;;15.39;85.39;101505.44;2569246;30;137765;-39
2021/09/04 09:03:20;;;;;;;29.08;14.05;;;16.60;99.90;;;15.52;84.70;101514.59;2569050;30;139164;-39
2021/09/04 09:05:49;;;;;;;32.75;15.40;;;16.60;99.90;;;15.72;85.56;101510.75;2568721;30;137555;-39
2021/09/04 09:08:21;;;;;;;;;;;16.80;99.90;;;15.62;83.93;101512.13;2568876;30;138272;-40
2021/09/04 09:10:51;;;;;;;27.67;14.30;;;16.80;99.90;;;15.65;83.27;101524.59;2569987;30;136639;-40
2021/09/04 09:13:21;;;;;;;27.60;13.57;;;16.80;99.90;;;15.66;84.29;101524.38;2567636;30;139343;-39
2021/09/04 09:15:51;;;;;;;26.63;14.10;;;16.80;99.90;;;15.59;83.98;101520.84;2567475;30;137283;-40
2021/09/04 09:18:19;;;;;;;26.95;13.88;;;16.80;99.90;;;15.65;84.53;101519.09;2570515;30;138192;-40
2021/09/04 09:21:02;;;;;;;28.30;14.30;;;16.80;99.90;;;15.74;86.36;101525.94;2566971;30;137286;-39
2021/09/04 09:23:31;;;;;;;27.15;13.93;;;16.90;99.90;;;15.92;84.28;101524.28;2567936;30;138519;-39
2021/09/04 09:26:08;;;;;;;29.05;14.00;;;17.00;99.90;;;16.00;81.78;101523.97;2568085;30;137303;-39
2021/09/04 09:28:38;;;;;;;26.57;14.33;;;17.10;99.90;;;16.15;81.38;101528.22;2569378;30;139026;-39
2021/09/04 09:31:06;;;;;;;29.45;14.55;;;17.20;99.90;;;16.20;81.90;101514.59;2569865;30;137679;-40
2021/09/04 09:33:33;;;;;;;;;;;17.20;99.90;;;16.28;81.71;101516.19;2571293;30;138474;-39
2021/09/04 09:36:04;;;;;;;24.88;13.90;;;17.40;99.90;;;16.25;81.10;101518.34;2569294;30;137117;-40
2021/09/04 09:38:34;;;;;;;30.20;15.05;;;17.40;99.90;;;16.24;80.95;101518.56;2569422;30;138993;-41
2021/09/04 09:41:07;;;;;;;28.17;14.32;;;17.40;99.90;;;16.15;80.76;101512.53;2569284;30;136944;-39
2021/09/04 09:43:37;;;;;;;28.13;14.48;;;17.40;99.90;;;16.08;82.04;101507.16;2569777;30;137327;-40
2021/09/04 09:46:07;;;;;;;25.88;14.13;;;17.30;99.90;;;16.34;83.01;101505.09;2570133;30;138669;-39
2021/09/04 09:48:38;;;;;;;26.23;13.77;;;17.40;99.90;;;16.49;80.30;101507.41;2566051;30;139464;-39
2021/09/04 09:51:09;;;;;;;24.27;13.40;;;17.50;99.90;;;16.91;80.85;101512.00;2566592;30;136869;-39
2021/09/04 09:53:37;;;;;;;29.85;14.30;;;17.80;99.90;;;16.93;79.15;101507.09;2568446;30;140011;-39
2021/09/04 09:56:06;;;;;;;25.70;13.95;;;18.00;99.90;;;16.79;79.04;101505.63;2568972;30;137696;-40
2021/09/04 09:58:36;;;;;;;26.83;13.20;;;17.90;99.90;;;16.76;78.73;101500.59;2568530;30;138263;-39
2021/09/04 10:01:04;;;;;;;25.00;13.60;;;17.90;99.90;;;16.95;80.24;101506.84;2567636;30;137809;-40